Home > Products > Valid Products > TAF

000
FTUS43 KMPX 290845 AAA
TAFMSP
TAF AMD
KMSP 290845Z 2909/3012 23010KT P6SM SKC
     FM291400 27017G25KT P6SM SKC
     FM291600 27023G32KT P6SM SKC
     FM300100 27010KT P6SM SKC=



000
FTUS43 KMPX 290845 AAA
TAFMSP
TAF AMD
KMSP 290845Z 2909/3012 23010KT P6SM SKC
     FM291400 27017G25KT P6SM SKC
     FM291600 27023G32KT P6SM SKC
     FM300100 27010KT P6SM SKC=



000
FTUS43 KMPX 290520
TAFEAU
TAF
KEAU 290520Z 2906/3006 25008KT P6SM SKC
      TEMPO 2906/2908 OVC250
     FM291400 27015G25KT P6SM SKC
     FM291600 27021G30KT P6SM SKC
     FM300100 25008KT P6SM SKC=



000
FTUS43 KMPX 290520
TAFEAU
TAF
KEAU 290520Z 2906/3006 25008KT P6SM SKC
      TEMPO 2906/2908 OVC250
     FM291400 27015G25KT P6SM SKC
     FM291600 27021G30KT P6SM SKC
     FM300100 25008KT P6SM SKC=



000
FTUS43 KMPX 290520
TAFRWF
TAF
KRWF 290520Z 2906/3006 25011KT P6SM SKC
     FM291300 27017G25KT P6SM SKC
     FM291500 28021G32KT P6SM SKC
     FM300100 25008KT P6SM SKC=



000
FTUS43 KMPX 290520
TAFSTC
TAF
KSTC 290520Z 2906/3006 25011KT P6SM SKC
     FM291300 28018G25KT P6SM SKC
     FM291500 28025G35KT P6SM SKC
     FM300100 27010KT P6SM SKC=



000
FTUS43 KMPX 290520
TAFAXN
TAF
KAXN 290520Z 2906/3006 25016G25KT P6SM SKC
     FM291500 28025G35KT P6SM SKC
     FM300100 28008KT P6SM SKC=



000
FTUS43 KMPX 290520
TAFMSP
TAF
KMSP 290520Z 2906/3012 26009KT P6SM SKC
     FM291400 27017G25KT P6SM SKC
     FM291600 27023G32KT P6SM SKC
     FM300100 27010KT P6SM SKC=



000
FTUS43 KMPX 290326 AAA
TAFMSP
TAF AMD
KMSP 290326Z 2903/3006 27009KT P6SM SKC
     FM291400 27017G25KT P6SM SKC
     FM291600 27024G32KT P6SM SKC
     FM300100 27012KT P6SM SKC=



000
FTUS43 KMPX 282340
TAFAXN
TAF
KAXN 282340Z 2900/2924 25014G22KT P6SM SKC
     FM291500 28025G35KT P6SM SKC=



000
FTUS43 KMPX 282340
TAFSTC
TAF
KSTC 282340Z 2900/2924 25011KT P6SM SKC
     FM291300 28018G25KT P6SM SKC
     FM291500 28025G35KT P6SM SKC=



000
FTUS43 KMPX 282340
TAFMSP
TAF
KMSP 282340Z 2900/3006 23010G16KT P6SM VCSH SCT030 BKN045
     FM290130 27009KT P6SM SKC
     FM291400 27017G25KT P6SM SKC
     FM291600 27024G32KT P6SM SKC
     FM300100 27012KT P6SM SKC=



000
FTUS43 KMPX 282340
TAFRWF
TAF
KRWF 282340Z 2900/2924 27010KT P6SM SKC
     FM291300 27017G25KT P6SM SKC
     FM291500 28021G32KT P6SM SKC=



000
FTUS43 KMPX 282340
TAFEAU
TAF
KEAU 282340Z 2900/2924 20007KT P6SM VCSH SCT030 BKN045
     FM290500 25008KT P6SM SKC
     FM291400 27015G25KT P6SM SKC
     FM291600 27021G30KT P6SM SKC=



000
FTUS43 KMPX 282108 AAA
TAFMSP
TAF AMD
KMSP 282108Z 2821/2924 21014G20KT P6SM SCT025 OVC045
      TEMPO 2822/2824 -SHRA
     FM290200 25010G16KT P6SM SCT250
     FM291500 27017G27KT P6SM SKC=



000
FTUS43 KMPX 281736
TAFEAU
TAF
KEAU 281736Z 2818/2918 17016KT P6SM FEW025 BKN150
     FM290200 21012KT P6SM VCTS BKN040CB
     FM290300 25006KT P6SM SCT250
     FM291500 27013G19KT P6SM SKC=



000
FTUS43 KMPX 281736
TAFRWF
TAF
KRWF 281736Z 2818/2918 24015G20KT P6SM SCT020 BKN045
      TEMPO 2818/2820 P6SM BKN025
     FM290200 26011G16KT P6SM SCT250
     FM291500 27019G26KT P6SM SKC=



000
FTUS43 KMPX 281736
TAFAXN
TAF
KAXN 281736Z 2818/2918 25014G21KT P6SM FEW020 SCT040
      TEMPO 2818/2821 P6SM BKN040
     FM290300 26010G15KT P6SM SCT250
     FM291500 26018G25KT P6SM SKC=



000
FTUS43 KMPX 281736
TAFMSP
TAF
KMSP 281736Z 2818/2924 18014G19KT P6SM FEW020 BKN150
      TEMPO 2818/2820 P6SM BKN025
     FM282000 21014G20KT P6SM OVC150
     FM290200 25010G16KT P6SM SCT250
     FM291500 27017G27KT P6SM SKC=



000
FTUS43 KMPX 281736
TAFSTC
TAF
KSTC 281736Z 2818/2918 19012KT P6SM SCT020 OVC035
      TEMPO 2818/2820 P6SM BKN025
     FM282000 23015G22KT P6SM SCT025 OVC040
     FM290200 25010G15KT P6SM SCT250
     FM291430 26018G25KT P6SM SKC=



000
FTUS43 KMPX 281736
TAFEAU
TAF
KEAU 281736Z 2818/2918 17016KT P6SM FEW025 BKN150
     FM290200 21012KT P6SM VCTS BKN040CB
     FM290300 25006KT P6SM SCT250
     FM291500 27013G19KT P6SM SKC=



000
FTUS43 KMPX 281736
TAFAXN
TAF
KAXN 281736Z 2818/2918 25014G21KT P6SM FEW020 SCT040
      TEMPO 2818/2821 P6SM BKN040
     FM290300 26010G15KT P6SM SCT250
     FM291500 26018G25KT P6SM SKC=



000
FTUS43 KMPX 281736
TAFRWF
TAF
KRWF 281736Z 2818/2918 24015G20KT P6SM SCT020 BKN045
      TEMPO 2818/2820 P6SM BKN025
     FM290200 26011G16KT P6SM SCT250
     FM291500 27019G26KT P6SM SKC=



000
FTUS43 KMPX 281736
TAFMSP
TAF
KMSP 281736Z 2818/2924 18014G19KT P6SM FEW020 BKN150
      TEMPO 2818/2820 P6SM BKN025
     FM282000 21014G20KT P6SM OVC150
     FM290200 25010G16KT P6SM SCT250
     FM291500 27017G27KT P6SM SKC=



000
FTUS43 KMPX 281736
TAFSTC
TAF
KSTC 281736Z 2818/2918 19012KT P6SM SCT020 OVC035
      TEMPO 2818/2820 P6SM BKN025
     FM282000 23015G22KT P6SM SCT025 OVC040
     FM290200 25010G15KT P6SM SCT250
     FM291430 26018G25KT P6SM SKC=



000
FTUS43 KMPX 281543 AAB
TAFEAU
TAF AMD
KEAU 281543Z 2816/2912 17009KT 6SM -RA BKN060
     FM281800 17015G22KT P6SM SCT020 OVC035
     FM290100 20012KT P6SM VCTS BKN040CB
     FM290500 25006KT P6SM BKN250=



000
FTUS43 KMPX 281519 AAB
TAFSTC
TAF AMD
KSTC 281519Z 2815/2912 21013KT P6SM SCT010
     FM281700 23015G22KT P6SM VCSH SCT020 OVC035
     FM282300 25016G23KT P6SM BKN040
     FM290200 25014G19KT P6SM SCT250=



000
FTUS43 KMPX 281504 AAA
TAFAXN
TAF AMD
KAXN 281504Z 2815/2912 24014G21KT P6SM SCT010 SCT020 OVC150
      TEMPO 2815/2818 BKN020
     FM282100 28016G25KT P6SM BKN040
     FM290300 26015G22KT P6SM SCT250=



000
FTUS43 KMPX 281504 AAA
TAFAXN
TAF AMD
KAXN 281504Z 2815/2912 24014G21KT P6SM SCT010 SCT020 OVC150
      TEMPO 2815/2818 BKN020
     FM282100 28016G25KT P6SM BKN040
     FM290300 26015G22KT P6SM SCT250=



000
FTUS43 KMPX 281447 AAC
TAFMSP
TAF AMD
KMSP 281447Z 2815/2918 15014G19KT P6SM FEW010 BKN150
     FM282000 18012G19KT P6SM OVC150
     FM290100 25010G16KT P6SM BKN060
     FM290600 26010KT P6SM SCT250=



000
FTUS43 KMPX 281447 AAC
TAFMSP
TAF AMD
KMSP 281447Z 2815/2918 15014G19KT P6SM FEW010 BKN150
     FM282000 18012G19KT P6SM OVC150
     FM290100 25010G16KT P6SM BKN060
     FM290600 26010KT P6SM SCT250=



000
FTUS43 KMPX 281407 AAB
TAFMSP
TAF AMD
KMSP 281407Z 2814/2918 13008KT P6SM -SHRA SCT025 OVC035
      TEMPO 2814/2815 BKN005
     FM281600 18015G22KT P6SM BKN035 OVC050
     FM290100 25010G16KT P6SM BKN060
     FM290600 26010KT P6SM SCT250=



000
FTUS43 KMPX 281407 AAB
TAFMSP
TAF AMD
KMSP 281407Z 2814/2918 13008KT P6SM -SHRA SCT025 OVC035
      TEMPO 2814/2815 BKN005
     FM281600 18015G22KT P6SM BKN035 OVC050
     FM290100 25010G16KT P6SM BKN060
     FM290600 26010KT P6SM SCT250=



000
FTUS43 KMPX 281357 AAB
TAFRWF
TAF AMD
KRWF 281357Z 2814/2912 19012G18KT P6SM BKN150
     FM281600 12018G25KT P6SM SCT030 BKN040
     FM282200 25015G23KT P6SM BKN045
     FM290200 26014G20KT P6SM SCT250=



000
FTUS43 KMPX 281353 AAA
TAFEAU
TAF AMD
KEAU 281353Z 2814/2912 17009KT 5SM -RA BKN060
      TEMPO 2814/2816 2SM -RA BR OVC020
     FM281800 16015G22KT P6SM -SHRA SCT020 OVC035
     FM282000 17016G23KT P6SM VCSH BKN035 OVC050
     FM290200 19012KT P6SM VCTS BKN040CB
     FM290500 25006KT P6SM BKN250=



000
FTUS43 KMPX 281353 AAA
TAFEAU
TAF AMD
KEAU 281353Z 2814/2912 17009KT 5SM -RA BKN060
      TEMPO 2814/2816 2SM -RA BR OVC020
     FM281800 16015G22KT P6SM -SHRA SCT020 OVC035
     FM282000 17016G23KT P6SM VCSH BKN035 OVC050
     FM290200 19012KT P6SM VCTS BKN040CB
     FM290500 25006KT P6SM BKN250=



000
FTUS43 KMPX 281238 AAA
TAFSTC
TAF AMD
KSTC 281238Z 2813/2912 15013KT P6SM SCT010
      TEMPO 2813/2816 OVC010
     FM281600 17015G22KT P6SM VCSH SCT020 OVC035
     FM282300 25016G23KT P6SM BKN040
     FM290200 25014G19KT P6SM SCT250=



000
FTUS43 KMPX 281238 AAA
TAFSTC
TAF AMD
KSTC 281238Z 2813/2912 15013KT P6SM SCT010
      TEMPO 2813/2816 OVC010
     FM281600 17015G22KT P6SM VCSH SCT020 OVC035
     FM282300 25016G23KT P6SM BKN040
     FM290200 25014G19KT P6SM SCT250=



000
FTUS43 KMPX 281218 AAA
TAFMSP
TAF AMD
KMSP 281218Z 2812/2918 31015KT 1SM -TSRA BR OVC025CB
     FM281230 15008KT P6SM -SHRA SCT025 OVC035
     FM281900 18017G25KT P6SM VCSH BKN035 OVC050 PROB30 2821/2824
      5SM -TSRA BKN035CB
     FM290100 25010G16KT P6SM BKN060
     FM290600 26010KT P6SM SCT250=



000
FTUS43 KMPX 281214 AAA
TAFRWF
TAF AMD
KRWF 281214Z 2812/2912 17012G18KT 6SM -RA BR BKN050
     FM281400 18016G23KT 6SM -SHRA BR OVC025
     FM281600 19018G25KT P6SM SCT030 BKN040
     FM282200 25015G23KT P6SM BKN045
     FM290200 26014G20KT P6SM SCT250=



000
FTUS43 KMPX 281146 CCA
TAFAXN
TAF COR
KAXN 281146Z 2812/2912 15014KT P6SM VCTS OVC005CB
     FM281300 16015G23KT P6SM VCSH OVC007
     FM281600 19014G21KT P6SM SCT010 BKN020 OVC035
     FM282100 25016G25KT P6SM BKN040
     FM290300 26015G22KT P6SM SCT250=



000
FTUS43 KMPX 281146 CCA
TAFAXN
TAF COR
KAXN 281146Z 2812/2912 15014KT P6SM VCTS OVC005CB
     FM281300 16015G23KT P6SM VCSH OVC007
     FM281600 19014G21KT P6SM SCT010 BKN020 OVC035
     FM282100 25016G25KT P6SM BKN040
     FM290300 26015G22KT P6SM SCT250=



000
FTUS43 KMPX 281143 CCA
TAFMSP
TAF COR
KMSP 281143Z 2812/2918 14015G22KT 5SM -TSRA BR OVC035CB
      TEMPO 2812/2814 17020G30KT 1 1/2SM TSRA BR BKN017 OVC025CB
     FM281600 15016G24KT P6SM -SHRA SCT025 OVC035
     FM281900 18017G25KT P6SM VCSH BKN035 OVC050 PROB30 2821/2824
      5SM -TSRA BKN035CB
     FM290100 25010G16KT P6SM BKN060
     FM290600 26010KT P6SM SCT250=



000
FTUS43 KMPX 281143 CCA
TAFMSP
TAF COR
KMSP 281143Z 2812/2918 14015G22KT 5SM -TSRA BR OVC035CB
      TEMPO 2812/2814 17020G30KT 1 1/2SM TSRA BR BKN017 OVC025CB
     FM281600 15016G24KT P6SM -SHRA SCT025 OVC035
     FM281900 18017G25KT P6SM VCSH BKN035 OVC050 PROB30 2821/2824
      5SM -TSRA BKN035CB
     FM290100 25010G16KT P6SM BKN060
     FM290600 26010KT P6SM SCT250=



000
FTUS43 KMPX 281131 CCA
TAFRWF
TAF COR
KRWF 281131Z 2812/2912 18012G18KT 5SM -TSRA BR BKN050CB
      TEMPO 2812/2813 2SM TSRA OVC015CB
     FM281400 18016G23KT 6SM -SHRA BR OVC025
     FM281600 19018G25KT P6SM SCT030 BKN040
     FM282200 25015G23KT P6SM BKN045
     FM290200 26014G20KT P6SM SCT250=



000
FTUS43 KMPX 281120
TAFAXN
TAF
KAXN 281120Z 2812/2912 15014KT P6SM -TSRA SCT025 BKN050CB OVC100
      TEMPO 2812/2813 2SM TSRA OVC020CB
     FM281300 16015G23KT 5SM -SHRA BR OVC020
     FM281600 19014G21KT P6SM VCSH SCT020 OVC035
     FM282100 25016G25KT P6SM BKN040
     FM290300 26015G22KT P6SM SCT250=



000
FTUS43 KMPX 281120
TAFRWF
TAF
KRWF 281120Z 2812/2912 15012G18KT 5SM -TSRA BR BKN050CB
      TEMPO 2812/2813 2SM TSRA OVC015CB
     FM281400 16016G23KT 6SM -SHRA BR OVC025
     FM281600 19018G25KT P6SM SCT030 BKN040
     FM282200 25015G23KT P6SM BKN045
     FM290200 16014G20KT P6SM SCT250=



000
FTUS43 KMPX 281120
TAFEAU
TAF
KEAU 281120Z 2812/2912 13005KT P6SM FEW060
     FM281400 15011KT 5SM -TSRA BKN060CB
      TEMPO 2815/2818 2SM -TSRA BR OVC020CB
     FM281800 16015G22KT P6SM -SHRA SCT020 OVC035
     FM282000 17016G23KT P6SM VCSH BKN035 OVC050
     FM290200 19012KT P6SM VCTS BKN040CB
     FM290500 25006KT P6SM BKN250=



000
FTUS43 KMPX 281120
TAFMSP
TAF
KMSP 281120Z 2812/2918 14015G22KT 5SM -TSRA BR OVC035CB
      TEMPO 2813/2816 2SM -TSRA BR OVC025CB
     FM281600 15016G24KT P6SM -SHRA SCT025 OVC035
     FM281900 18017G25KT P6SM VCSH BKN035 OVC050 PROB30 2821/2824
      5SM -TSRA BKN035CB
     FM290100 25010G16KT P6SM BKN060
     FM290600 26010KT P6SM SCT250=



000
FTUS43 KMPX 281120
TAFSTC
TAF
KSTC 281120Z 2812/2912 14011KT P6SM -TSRA OVC045CB
      TEMPO 2812/2813 2SM TSRA OVC015CB
     FM281400 15013G20KT 4SM -SHRA BR OVC015
     FM281600 17015G22KT P6SM VCSH SCT020 OVC035
     FM282300 25016G23KT P6SM BKN040
     FM290200 25014G19KT P6SM SCT250=



000
FTUS43 KMPX 280910 AAA
TAFSTC
TAF AMD
KSTC 280910Z 2809/2906 14010KT P6SM VCSH SCT015 BKN060
     FM281000 14011KT P6SM -TSRA OVC045CB
      TEMPO 2810/2813 2SM TSRA OVC015CB
     FM281400 15013G20KT 4SM -SHRA BR OVC015
     FM281600 17015G22KT P6SM VCSH SCT020 OVC035
     FM282300 25016G23KT P6SM BKN040=



000
FTUS43 KMPX 280910 AAA
TAFSTC
TAF AMD
KSTC 280910Z 2809/2906 14010KT P6SM VCSH SCT015 BKN060
     FM281000 14011KT P6SM -TSRA OVC045CB
      TEMPO 2810/2813 2SM TSRA OVC015CB
     FM281400 15013G20KT 4SM -SHRA BR OVC015
     FM281600 17015G22KT P6SM VCSH SCT020 OVC035
     FM282300 25016G23KT P6SM BKN040=



000
FTUS43 KMPX 280908 AAC
TAFAXN
TAF AMD
KAXN 280908Z 2809/2906 15014KT P6SM -TSRA SCT025 BKN050CB OVC100
      TEMPO 2810/2813 2SM TSRA OVC020CB
     FM281300 16015G23KT 5SM -SHRA BR OVC020
     FM281600 19014G21KT P6SM VCSH SCT020 OVC035
     FM282100 25016G25KT P6SM BKN040=



000
FTUS43 KMPX 280908 AAC
TAFAXN
TAF AMD
KAXN 280908Z 2809/2906 15014KT P6SM -TSRA SCT025 BKN050CB OVC100
      TEMPO 2810/2813 2SM TSRA OVC020CB
     FM281300 16015G23KT 5SM -SHRA BR OVC020
     FM281600 19014G21KT P6SM VCSH SCT020 OVC035
     FM282100 25016G25KT P6SM BKN040=



000
FTUS43 KMPX 280858 AAA
TAFMSP
TAF AMD
KMSP 280858Z 2809/2912 13010KT P6SM SCT060
     FM281000 14012KT P6SM VCSH BKN060
     FM281115 14015KT 5SM -TSRA BR OVC035CB
      TEMPO 2812/2815 2SM -TSRA BR OVC025CB
     FM281600 15016G24KT P6SM -SHRA SCT025 OVC035
     FM281900 18017G25KT P6SM VCSH BKN035 OVC050
     FM290200 25010KT P6SM BKN060=



000
FTUS43 KMPX 280812 AAB
TAFRWF
TAF AMD
KRWF 280812Z 2808/2906 14011KT P6SM SCT060
     FM280900 15012G18KT P6SM VCTS BKN050CB
      TEMPO 2810/2813 2SM TSRA OVC015CB
     FM281400 16016G23KT 6SM -SHRA BR OVC025
     FM281600 19018G25KT P6SM SCT030 BKN040
     FM282200 25015G23KT P6SM BKN045=



000
FTUS43 KMPX 280748 AAA
TAFRWF
TAF AMD
KRWF 280748Z 2808/2906 14011KT P6SM SCT060
     FM280900 15012G18KT P6SM VCSH BKN050
      TEMPO 2810/2813 2SM TSRA OVC015CB
     FM281400 16016G23KT 6SM -SHRA BR OVC025
     FM281600 19018G25KT P6SM SCT030 BKN040
     FM282200 25015G23KT P6SM BKN045=



000
FTUS43 KMPX 280746 AAB
TAFAXN
TAF AMD
KAXN 280746Z 2808/2906 14013KT P6SM SCT025 BKN120
     FM280900 15014KT P6SM VCSH SCT025 BKN050
     FM280945 15015KT 5SM -TSRA SCT025 BKN050CB
      TEMPO 2810/2813 2SM TSRA OVC020CB
     FM281300 16015G23KT 5SM -SHRA BR OVC020
     FM281600 19014G21KT P6SM VCSH SCT020 OVC035
     FM282100 25016G25KT P6SM BKN040=



000
FTUS43 KMPX 280746 AAB
TAFAXN
TAF AMD
KAXN 280746Z 2808/2906 14013KT P6SM SCT025 BKN120
     FM280900 15014KT P6SM VCSH SCT025 BKN050
     FM280945 15015KT 5SM -TSRA SCT025 BKN050CB
      TEMPO 2810/2813 2SM TSRA OVC020CB
     FM281300 16015G23KT 5SM -SHRA BR OVC020
     FM281600 19014G21KT P6SM VCSH SCT020 OVC035
     FM282100 25016G25KT P6SM BKN040=



000
FTUS43 KMPX 280611 AAA
TAFAXN
TAF AMD
KAXN 280611Z 2806/2906 14013KT P6SM BKN025
     FM280900 15014KT P6SM VCSH OVC025
      TEMPO 2809/2812 2SM TSRA OVC020CB
     FM281300 16015G23KT 5SM -SHRA BR OVC020
     FM281600 19014G21KT P6SM VCSH SCT020 OVC035
     FM282100 25016G25KT P6SM BKN040=



000
FTUS43 KMPX 280611 AAA
TAFAXN
TAF AMD
KAXN 280611Z 2806/2906 14013KT P6SM BKN025
     FM280900 15014KT P6SM VCSH OVC025
      TEMPO 2809/2812 2SM TSRA OVC020CB
     FM281300 16015G23KT 5SM -SHRA BR OVC020
     FM281600 19014G21KT P6SM VCSH SCT020 OVC035
     FM282100 25016G25KT P6SM BKN040=



000
FTUS43 KMPX 280520
TAFSTC
TAF
KSTC 280520Z 2806/2906 13009KT P6SM FEW060
     FM280900 14010KT P6SM BKN060
     FM281000 14011KT P6SM VCSH OVC045
      TEMPO 2810/2813 2SM TSRA OVC015CB
     FM281400 15013G20KT 4SM -SHRA BR OVC015
     FM281600 17015G22KT P6SM VCSH SCT020 OVC035
     FM282300 25016G23KT P6SM BKN040=



000
FTUS43 KMPX 280520
TAFRWF
TAF
KRWF 280520Z 2806/2906 14010KT P6SM SCT060
     FM280900 15012KT P6SM BKN060
     FM281000 15012G18KT P6SM VCSH OVC045
      TEMPO 2810/2813 2SM TSRA OVC015CB
     FM281400 16016G23KT 6SM -SHRA BR OVC025
     FM281600 19018G25KT P6SM SCT030 BKN040
     FM282200 25015G23KT P6SM BKN045=



000
FTUS43 KMPX 280520
TAFMSP
TAF
KMSP 280520Z 2806/2912 13010KT P6SM SCT060
     FM281000 14012KT P6SM VCSH BKN060
      TEMPO 2812/2815 2SM -TSRA BR OVC025CB
     FM281600 15016G24KT P6SM -SHRA SCT025 OVC035
     FM281900 18017G25KT P6SM VCSH BKN035 OVC050
     FM290200 25010KT P6SM BKN060=



000
FTUS43 KMPX 280520
TAFEAU
TAF
KEAU 280520Z 2806/2906 13005KT P6SM FEW060
      TEMPO 2810/2812 5SM BR
     FM281400 15011KT P6SM VCSH BKN060
      TEMPO 2815/2818 2SM -TSRA BR OVC020CB
     FM281800 16015G22KT P6SM -SHRA SCT020 OVC035
     FM282000 17016G23KT P6SM VCSH BKN035 OVC050
     FM290200 19012KT P6SM VCTS BKN040CB=



000
FTUS43 KMPX 280520
TAFEAU
TAF
KEAU 280520Z 2806/2906 13005KT P6SM FEW060
      TEMPO 2810/2812 5SM BR
     FM281400 15011KT P6SM VCSH BKN060
      TEMPO 2815/2818 2SM -TSRA BR OVC020CB
     FM281800 16015G22KT P6SM -SHRA SCT020 OVC035
     FM282000 17016G23KT P6SM VCSH BKN035 OVC050
     FM290200 19012KT P6SM VCTS BKN040CB=



000
FTUS43 KMPX 280520
TAFAXN
TAF
KAXN 280520Z 2806/2906 14013KT P6SM SCT060
     FM280800 15014KT P6SM BKN060
     FM280900 15014KT P6SM VCSH OVC045
      TEMPO 2809/2812 2SM TSRA OVC020CB
     FM281300 16015G23KT 5SM -SHRA BR OVC020
     FM281600 19014G21KT P6SM VCSH SCT020 OVC035
     FM282100 25016G25KT P6SM BKN040=



000
FTUS43 KMPX 280251 AAA
TAFMSP
TAF AMD
KMSP 280251Z 2803/2906 13010KT P6SM SCT060
     FM281000 14013G20KT P6SM VCSH BKN045
      TEMPO 2812/2815 4SM -TSRA BR BKN030CB
     FM281600 15015G22KT P6SM -SHRA SCT015 OVC035
     FM281800 18018G26KT P6SM VCSH OVC035
     FM290200 23014KT P6SM BKN040=



000
FTUS43 KMPX 272337
TAFSTC
TAF
KSTC 272337Z 2800/2824 16011KT P6SM SCT035
     FM280700 14012KT P6SM VCTS BKN035CB
     FM281000 14013KT 6SM -SHRA BR OVC030
      TEMPO 2810/2813 3SM TSRA OVC015CB
     FM281300 15014G20KT 5SM -SHRA BR OVC015
     FM281600 17015G24KT P6SM VCSH SCT015 BKN030
     FM282100 25016G25KT P6SM BKN035=



000
FTUS43 KMPX 272337
TAFEAU
TAF
KEAU 272337Z 2800/2824 15009KT P6SM SCT050
     FM280300 14005KT P6SM SCT030
     FM281000 15011KT 4SM BR SCT015
     FM281400 16013KT P6SM BKN035
      TEMPO 2815/2818 2SM -TSRA BR OVC020CB
     FM281800 17015G22KT P6SM VCSH SCT020 BKN035=



000
FTUS43 KMPX 272337
TAFAXN
TAF
KAXN 272337Z 2800/2824 15013KT P6SM SCT030
     FM280600 14014KT P6SM VCTS BKN035CB
     FM280900 15015KT 5SM -SHRA BR OVC025
      TEMPO 2809/2812 2SM TSRA OVC010CB
     FM281200 16016G24KT 4SM BR OVC007
     FM281500 19015G22KT 6SM BR SCT008 OVC020
     FM281900 25016G25KT P6SM BKN035=



000
FTUS43 KMPX 272337
TAFRWF
TAF
KRWF 272337Z 2800/2824 16013KT P6SM FEW035
     FM280700 15014KT P6SM VCTS BKN035CB
     FM281000 15015KT P6SM VCSH OVC035
      TEMPO 2810/2813 5SM TSRA OVC020CB
     FM281300 16017G27KT P6SM VCSH SCT015 BKN030
     FM282000 25016G25KT P6SM BKN035=



000
FTUS43 KMPX 272337
TAFMSP
TAF
KMSP 272337Z 2800/2906 14012KT P6SM SCT035 BKN060
     FM280300 13010KT P6SM SCT035
     FM281000 14014KT P6SM VCSH BKN035
      TEMPO 2811/2814 4SM -TSRA BR BKN030CB
     FM281400 15015G22KT P6SM -SHRA SCT015 OVC030
     FM281700 17018G26KT P6SM VCSH OVC035
     FM290200 23014KT P6SM BKN040=



000
FTUS43 KMPX 272057 AAA
TAFMSP
TAF AMD
KMSP 272057Z 2721/2824 14013KT P6SM SCT030 BKN050
     FM280200 15008KT P6SM BKN050
     FM280900 14014G22KT P6SM VCTS BKN040CB
      TEMPO 2810/2814 5SM -TSRA BKN035CB
     FM281400 14012KT P6SM FEW008 BKN020
     FM281700 16012G17KT P6SM SCT010 OVC035=



000
FTUS43 KMPX 272057 AAA
TAFMSP
TAF AMD
KMSP 272057Z 2721/2824 14013KT P6SM SCT030 BKN050
     FM280200 15008KT P6SM BKN050
     FM280900 14014G22KT P6SM VCTS BKN040CB
      TEMPO 2810/2814 5SM -TSRA BKN035CB
     FM281400 14012KT P6SM FEW008 BKN020
     FM281700 16012G17KT P6SM SCT010 OVC035=



000
FTUS43 KMPX 271722
TAFMSP
TAF
KMSP 271722Z 2718/2824 14011G18KT P6SM SCT035
     FM280200 15008KT P6SM BKN050
     FM280900 14014G22KT P6SM VCTS BKN040CB
      TEMPO 2810/2814 5SM -TSRA BKN035CB
     FM281400 14012KT P6SM FEW008 BKN020
     FM281700 16012G17KT P6SM SCT010 OVC035=



000
FTUS43 KMPX 271722
TAFSTC
TAF
KSTC 271722Z 2718/2818 13011G16KT P6SM SCT030
      TEMPO 2718/2719 BKN025
     FM280200 15008KT P6SM BKN050
     FM280800 14012G18KT P6SM VCTS BKN050CB
      TEMPO 2809/2812 5SM -TSRA BKN040CB
     FM281200 15012KT 4SM BR OVC007
     FM281500 16013KT 6SM BR SCT008 OVC020=



000
FTUS43 KMPX 271722
TAFAXN
TAF
KAXN 271722Z 2718/2818 13012G19KT P6SM FEW020 SCT030
      TEMPO 2718/2719 BKN020
     FM280600 14011G17KT P6SM VCTS BKN040CB
     FM280800 16016G24KT 5SM -TSRA OVC040CB
     FM281100 15013KT 4SM BR OVC007
     FM281500 16012KT 6SM BR SCT008 OVC020=



000
FTUS43 KMPX 271722
TAFEAU
TAF
KEAU 271722Z 2718/2818 14012KT P6SM SCT040
     FM281100 14014G22KT P6SM VCTS BKN040CB
      TEMPO 2812/2814 5SM -TSRA BKN035CB
     FM281400 14012KT P6SM BKN020=



000
FTUS43 KMPX 271722
TAFRWF
TAF
KRWF 271722Z 2718/2818 14012G19KT P6SM SCT012
      TEMPO 2718/2719 BKN010
     FM272200 15013G19KT P6SM SCT250
     FM280500 15010G15KT P6SM VCTS BKN050CB
      TEMPO 2806/2810 4SM -TSRA BKN040CB
     FM281100 15011KT 4SM BR OVC007
     FM281500 16012KT 6SM BR SCT008 OVC020=



000
FTUS43 KMPX 271722
TAFMSP
TAF
KMSP 271722Z 2718/2824 14011G18KT P6SM SCT035
     FM280200 15008KT P6SM BKN050
     FM280900 14014G22KT P6SM VCTS BKN040CB
      TEMPO 2810/2814 5SM -TSRA BKN035CB
     FM281400 14012KT P6SM FEW008 BKN020
     FM281700 16012G17KT P6SM SCT010 OVC035=



000
FTUS43 KMPX 271722
TAFRWF
TAF
KRWF 271722Z 2718/2818 14012G19KT P6SM SCT012
      TEMPO 2718/2719 BKN010
     FM272200 15013G19KT P6SM SCT250
     FM280500 15010G15KT P6SM VCTS BKN050CB
      TEMPO 2806/2810 4SM -TSRA BKN040CB
     FM281100 15011KT 4SM BR OVC007
     FM281500 16012KT 6SM BR SCT008 OVC020=



000
FTUS43 KMPX 271722
TAFEAU
TAF
KEAU 271722Z 2718/2818 14012KT P6SM SCT040
     FM281100 14014G22KT P6SM VCTS BKN040CB
      TEMPO 2812/2814 5SM -TSRA BKN035CB
     FM281400 14012KT P6SM BKN020=



000
FTUS43 KMPX 271722
TAFSTC
TAF
KSTC 271722Z 2718/2818 13011G16KT P6SM SCT030
      TEMPO 2718/2719 BKN025
     FM280200 15008KT P6SM BKN050
     FM280800 14012G18KT P6SM VCTS BKN050CB
      TEMPO 2809/2812 5SM -TSRA BKN040CB
     FM281200 15012KT 4SM BR OVC007
     FM281500 16013KT 6SM BR SCT008 OVC020=



000
FTUS43 KMPX 271722
TAFAXN
TAF
KAXN 271722Z 2718/2818 13012G19KT P6SM FEW020 SCT030
      TEMPO 2718/2719 BKN020
     FM280600 14011G17KT P6SM VCTS BKN040CB
     FM280800 16016G24KT 5SM -TSRA OVC040CB
     FM281100 15013KT 4SM BR OVC007
     FM281500 16012KT 6SM BR SCT008 OVC020=



000
FTUS43 KMPX 271657 AAD
TAFRWF
TAF AMD
KRWF 271657Z 2717/2812 13008KT P6SM OVC009
      TEMPO 2717/2718 SCT010
     FM271800 14012G19KT P6SM FEW050 BKN250
     FM280500 15010G15KT P6SM VCTS BKN050CB
      TEMPO 2806/2810 4SM -TSRA BKN040CB=



000
FTUS43 KMPX 271657 AAD
TAFRWF
TAF AMD
KRWF 271657Z 2717/2812 13008KT P6SM OVC009
      TEMPO 2717/2718 SCT010
     FM271800 14012G19KT P6SM FEW050 BKN250
     FM280500 15010G15KT P6SM VCTS BKN050CB
      TEMPO 2806/2810 4SM -TSRA BKN040CB=



000
FTUS43 KMPX 271650 AAD
TAFAXN
TAF AMD
KAXN 271650Z 2717/2812 14012KT P6SM FEW015 BKN021
      TEMPO 2717/2718 SCT015
     FM271800 14012G19KT P6SM FEW015 SCT030
     FM280000 14011G17KT P6SM VCTS BKN040CB
     FM280800 16016G24KT 5SM -TSRA OVC040CB=



000
FTUS43 KMPX 271557 AAC
TAFRWF
TAF AMD
KRWF 271557Z 2716/2812 12008KT P6SM OVC009
      TEMPO 2716/2717 SCT010
     FM271700 14012G19KT P6SM FEW050 BKN250
     FM280500 15010G15KT P6SM VCTS BKN050CB
      TEMPO 2806/2810 4SM -TSRA BKN040CB=



000
FTUS43 KMPX 271507 AAA
TAFSTC
TAF AMD
KSTC 271507Z 2715/2812 13008KT P6SM BKN012
     FM271700 14011G16KT P6SM SCT050
     FM280200 15008KT P6SM BKN050
     FM280800 14012G18KT P6SM VCTS BKN050CB
      TEMPO 2809/2812 5SM -TSRA BKN040CB=



000
FTUS43 KMPX 271507 AAA
TAFSTC
TAF AMD
KSTC 271507Z 2715/2812 13008KT P6SM BKN012
     FM271700 14011G16KT P6SM SCT050
     FM280200 15008KT P6SM BKN050
     FM280800 14012G18KT P6SM VCTS BKN050CB
      TEMPO 2809/2812 5SM -TSRA BKN040CB=



000
FTUS43 KMPX 271459 AAC
TAFAXN
TAF AMD
KAXN 271459Z 2715/2812 14008KT P6SM BKN009
      TEMPO 2715/2716 SCT009
     FM271600 14012G19KT P6SM FEW015 SCT030
     FM280000 14011G17KT P6SM VCTS BKN040CB
     FM280800 16016G24KT 5SM -TSRA OVC040CB=



000
FTUS43 KMPX 271429 AAB
TAFRWF
TAF AMD
KRWF 271429Z 2714/2812 12004KT 4SM BR OVC002
      TEMPO 2715/2716 SCT004
     FM271600 14012G19KT P6SM FEW050 BKN250
     FM280500 15010G15KT P6SM VCTS BKN050CB
      TEMPO 2806/2810 4SM -TSRA BKN040CB=



000
FTUS43 KMPX 271428 AAB
TAFAXN
TAF AMD
KAXN 271428Z 2714/2812 15008KT 5SM BR OVC002
      TEMPO 2714/2715 BKN009
     FM271500 14009KT 6SM BR SCT020
     FM271600 14012G19KT P6SM FEW050 BKN250
     FM280000 14011G17KT P6SM VCTS BKN040CB
     FM280800 16016G24KT 5SM -TSRA OVC040CB=



000
FTUS43 KMPX 271426 AAA
TAFMSP
TAF AMD
KMSP 271426Z 2714/2818 13008KT P6SM SCT020
     FM271700 14011G18KT P6SM SCT035
     FM280200 15008KT P6SM BKN050
     FM280900 14014G22KT P6SM VCTS BKN040CB
      TEMPO 2810/2814 5SM -TSRA BKN035CB
     FM281500 14012KT P6SM BKN040=



000
FTUS43 KMPX 271357 AAA
TAFAXN
TAF AMD
KAXN 271357Z 2714/2812 15008KT 5SM BR OVC002
      TEMPO 2714/2715 BKN002
     FM271500 14009KT 6SM BR SCT020
     FM271600 14012G19KT P6SM FEW050 BKN250
     FM280000 14011G17KT P6SM VCTS BKN040CB
     FM280800 16016G24KT 5SM -TSRA OVC040CB=



000
FTUS43 KMPX 271357 AAA
TAFAXN
TAF AMD
KAXN 271357Z 2714/2812 15008KT 5SM BR OVC002
      TEMPO 2714/2715 BKN002
     FM271500 14009KT 6SM BR SCT020
     FM271600 14012G19KT P6SM FEW050 BKN250
     FM280000 14011G17KT P6SM VCTS BKN040CB
     FM280800 16016G24KT 5SM -TSRA OVC040CB=



000
FTUS43 KMPX 271355 AAA
TAFRWF
TAF AMD
KRWF 271355Z 2714/2812 13004KT 4SM BR OVC002
      TEMPO 2714/2715 OVC002
     FM271500 13008KT P6SM SCT002
     FM271600 14012G19KT P6SM FEW050 BKN250
     FM280500 15010G15KT P6SM VCTS BKN050CB
      TEMPO 2806/2810 4SM -TSRA BKN040CB=



000
FTUS43 KMPX 271355 AAA
TAFRWF
TAF AMD
KRWF 271355Z 2714/2812 13004KT 4SM BR OVC002
      TEMPO 2714/2715 OVC002
     FM271500 13008KT P6SM SCT002
     FM271600 14012G19KT P6SM FEW050 BKN250
     FM280500 15010G15KT P6SM VCTS BKN050CB
      TEMPO 2806/2810 4SM -TSRA BKN040CB=



000
FTUS43 KMPX 271147 CCA
TAFAXN
TAF COR
KAXN 271147Z 2712/2812 15008KT 1/2SM FG OVC002
     FM271400 14009KT 5SM BR SCT020
     FM271600 14012G19KT P6SM FEW050 BKN250
     FM280000 14011G17KT P6SM VCTS BKN040CB
     FM280800 16016G24KT 5SM -TSRA OVC040CB=



000
FTUS43 KMPX 271147 CCA
TAFAXN
TAF COR
KAXN 271147Z 2712/2812 15008KT 1/2SM FG OVC002
     FM271400 14009KT 5SM BR SCT020
     FM271600 14012G19KT P6SM FEW050 BKN250
     FM280000 14011G17KT P6SM VCTS BKN040CB
     FM280800 16016G24KT 5SM -TSRA OVC040CB=



000
FTUS43 KMPX 271120
TAFEAU
TAF
KEAU 271120Z 2712/2812 11003KT 5SM BR FEW007
     FM271400 14008KT P6SM SCT050
     FM280900 13005KT P6SM BKN035=



000
FTUS43 KMPX 271120
TAFMSP
TAF
KMSP 271120Z 2712/2818 13008KT P6SM SCT040
     FM271700 14011G16KT P6SM SCT050
     FM280200 15008KT P6SM BKN050
     FM280900 14014G22KT P6SM VCTS BKN040CB
      TEMPO 2810/2814 5SM -TSRA BKN035CB
     FM281500 14012KT P6SM BKN040=



000
FTUS43 KMPX 271120
TAFEAU
TAF
KEAU 271120Z 2712/2812 11003KT 5SM BR FEW007
     FM271400 14008KT P6SM SCT050
     FM280900 13005KT P6SM BKN035=



000
FTUS43 KMPX 271120
TAFSTC
TAF
KSTC 271120Z 2712/2812 13008KT P6SM FEW035
     FM271700 14011G16KT P6SM SCT050
     FM280200 15008KT P6SM BKN050
     FM280800 14012G18KT P6SM VCTS BKN050CB
      TEMPO 2809/2812 5SM -TSRA BKN040CB=



000
FTUS43 KMPX 271120
TAFAXN
TAF
KAXN 271120Z 2712/2812 13008KT P6SM FEW250
     FM271600 14012G19KT P6SM FEW050 BKN250
     FM280000 14011G17KT P6SM VCTS BKN040CB
     FM280800 16016G24KT 5SM -TSRA OVC040CB=



000
FTUS43 KMPX 271120
TAFSTC
TAF
KSTC 271120Z 2712/2812 13008KT P6SM FEW035
     FM271700 14011G16KT P6SM SCT050
     FM280200 15008KT P6SM BKN050
     FM280800 14012G18KT P6SM VCTS BKN050CB
      TEMPO 2809/2812 5SM -TSRA BKN040CB=



000
FTUS43 KMPX 271120
TAFRWF
TAF
KRWF 271120Z 2712/2812 13004KT 4SM BR OVC002
     FM271400 13008KT P6SM SCT007 BKN025
     FM271600 14012G19KT P6SM FEW050 BKN250
     FM280500 15010G15KT P6SM VCTS BKN050CB
      TEMPO 2806/2810 4SM -TSRA BKN040CB=



000
FTUS43 KMPX 271120
TAFAXN
TAF
KAXN 271120Z 2712/2812 13008KT P6SM FEW250
     FM271600 14012G19KT P6SM FEW050 BKN250
     FM280000 14011G17KT P6SM VCTS BKN040CB
     FM280800 16016G24KT 5SM -TSRA OVC040CB=



000
FTUS43 KMPX 271120
TAFMSP
TAF
KMSP 271120Z 2712/2818 13008KT P6SM SCT040
     FM271700 14011G16KT P6SM SCT050
     FM280200 15008KT P6SM BKN050
     FM280900 14014G22KT P6SM VCTS BKN040CB
      TEMPO 2810/2814 5SM -TSRA BKN035CB
     FM281500 14012KT P6SM BKN040=



000
FTUS43 KMPX 271120
TAFRWF
TAF
KRWF 271120Z 2712/2812 13004KT 4SM BR OVC002
     FM271400 13008KT P6SM SCT007 BKN025
     FM271600 14012G19KT P6SM FEW050 BKN250
     FM280500 15010G15KT P6SM VCTS BKN050CB
      TEMPO 2806/2810 4SM -TSRA BKN040CB=



000
FTUS43 KMPX 270929 AAA
TAFRWF
TAF AMD
KRWF 270929Z 2709/2806 13004KT 2SM BR OVC002
     FM271400 13008KT P6SM SCT007 BKN025
     FM271600 14012G19KT P6SM FEW050 BKN250
     FM280000 15010G15KT P6SM VCTS BKN050CB=



000
FTUS43 KMPX 270902 AAA
TAFMSP
TAF AMD
KMSP 270902Z 2709/2812 11008KT P6SM SCT250
     FM271000 12004KT 6SM BR FEW250
     FM271300 13008KT P6SM SCT040
     FM271700 14011G16KT P6SM SCT050
     FM280200 15008KT P6SM BKN050
     FM280900 14010G15KT P6SM VCTS BKN040CB=



000
FTUS43 KMPX 270902 AAA
TAFMSP
TAF AMD
KMSP 270902Z 2709/2812 11008KT P6SM SCT250
     FM271000 12004KT 6SM BR FEW250
     FM271300 13008KT P6SM SCT040
     FM271700 14011G16KT P6SM SCT050
     FM280200 15008KT P6SM BKN050
     FM280900 14010G15KT P6SM VCTS BKN040CB=



000
FTUS43 KMPX 270520
TAFSTC
TAF
KSTC 270520Z 2706/2806 12004KT P6SM FEW250
     FM270900 VRB02KT 5SM BR FEW250
     FM271000 VRB02KT 1SM BR FEW250
     FM271300 13008KT P6SM FEW250
     FM271700 14011G16KT P6SM SCT050
     FM280200 15008KT P6SM BKN050=



000
FTUS43 KMPX 270520
TAFEAU
TAF
KEAU 270520Z 2706/2806 11004KT P6SM FEW250
     FM270800 11003KT 5SM BR FEW007
     FM271000 VRB02KT 1/2SM FG VV003
     FM271300 14008KT P6SM SCT050=



000
FTUS43 KMPX 270520
TAFRWF
TAF
KRWF 270520Z 2706/2806 11004KT P6SM SCT250
     FM270900 12004KT 4SM BR SCT010
     FM271000 12004KT 2SM BR BKN010
     FM271400 13008KT P6SM BKN025
     FM271600 14012G19KT P6SM FEW050 BKN250
     FM280000 15010G15KT P6SM VCTS BKN050CB=



000
FTUS43 KMPX 270520
TAFAXN
TAF
KAXN 270520Z 2706/2806 14007KT P6SM FEW250
     FM271000 14005KT 3SM BR SCT010
     FM271300 13008KT P6SM FEW250
     FM271600 14012G19KT P6SM FEW050 BKN250
     FM280000 14011G17KT P6SM VCTS BKN040CB=



000
FTUS43 KMPX 270520
TAFMSP
TAF
KMSP 270520Z 2706/2812 12005KT P6SM SCT250
     FM271000 12004KT 6SM BR FEW250
     FM271300 13008KT P6SM SCT040
     FM271700 14011G16KT P6SM SCT050
     FM280200 15008KT P6SM BKN050
     FM280900 14010G15KT P6SM VCTS BKN040CB=



000
FTUS43 KMPX 270520
TAFEAU
TAF
KEAU 270520Z 2706/2806 11004KT P6SM FEW250
     FM270800 11003KT 5SM BR FEW007
     FM271000 VRB02KT 1/2SM FG VV003
     FM271300 14008KT P6SM SCT050=



000
FTUS43 KMPX 270520
TAFAXN
TAF
KAXN 270520Z 2706/2806 14007KT P6SM FEW250
     FM271000 14005KT 3SM BR SCT010
     FM271300 13008KT P6SM FEW250
     FM271600 14012G19KT P6SM FEW050 BKN250
     FM280000 14011G17KT P6SM VCTS BKN040CB=



000
FTUS43 KMPX 270520
TAFMSP
TAF
KMSP 270520Z 2706/2812 12005KT P6SM SCT250
     FM271000 12004KT 6SM BR FEW250
     FM271300 13008KT P6SM SCT040
     FM271700 14011G16KT P6SM SCT050
     FM280200 15008KT P6SM BKN050
     FM280900 14010G15KT P6SM VCTS BKN040CB=



000
FTUS43 KMPX 270520
TAFSTC
TAF
KSTC 270520Z 2706/2806 12004KT P6SM FEW250
     FM270900 VRB02KT 5SM BR FEW250
     FM271000 VRB02KT 1SM BR FEW250
     FM271300 13008KT P6SM FEW250
     FM271700 14011G16KT P6SM SCT050
     FM280200 15008KT P6SM BKN050=



000
FTUS43 KMPX 270520
TAFRWF
TAF
KRWF 270520Z 2706/2806 11004KT P6SM SCT250
     FM270900 12004KT 4SM BR SCT010
     FM271000 12004KT 2SM BR BKN010
     FM271400 13008KT P6SM BKN025
     FM271600 14012G19KT P6SM FEW050 BKN250
     FM280000 15010G15KT P6SM VCTS BKN050CB=



000
FTUS43 KMPX 270233 AAA
TAFMSP
TAF AMD
KMSP 270233Z 2703/2806 13007KT P6SM BKN300
     FM271000 12004KT 6SM BR FEW250
     FM271300 13008KT P6SM SCT040
     FM271800 14011G16KT P6SM SCT050
     FM280200 15008KT P6SM BKN050=



000
FTUS43 KMPX 262321
TAFAXN
TAF
KAXN 262321Z 2700/2724 14010KT P6SM FEW045
     FM270200 14007KT P6SM FEW250
     FM270900 14005KT 5SM BR SKC
     FM271000 VRB02KT 2SM BR FEW250
     FM271300 13008KT P6SM FEW250
     FM271600 14012G19KT P6SM FEW050 BKN250=



000
FTUS43 KMPX 262321
TAFMSP
TAF
KMSP 262321Z 2700/2806 13009KT P6SM FEW045 FEW110
     FM270200 12005KT P6SM FEW250
     FM271000 12004KT 6SM BR FEW250
     FM271300 13008KT P6SM SCT040
     FM271800 14011G16KT P6SM SCT050
     FM280200 15008KT P6SM BKN050=



000
FTUS43 KMPX 262321
TAFSTC
TAF
KSTC 262321Z 2700/2724 11005KT P6SM FEW040
     FM270200 12004KT P6SM FEW250
     FM270900 VRB02KT 5SM BR FEW250
     FM271000 VRB02KT 1SM BR FEW250
     FM271300 13008KT P6SM FEW250
     FM271700 14011G16KT P6SM SCT050=



000
FTUS43 KMPX 262321
TAFRWF
TAF
KRWF 262321Z 2700/2724 13006KT P6SM FEW035
     FM270200 14004KT P6SM SCT250
     FM270900 13008KT 4SM BR SCT010
     FM271000 VRB02KT 1SM BR SCT006
     FM271300 13008KT P6SM FEW250
     FM271600 14012G19KT P6SM FEW050 BKN250=



000
FTUS43 KMPX 262321
TAFEAU
TAF
KEAU 262321Z 2700/2724 09005KT P6SM FEW110
     FM270200 12004KT P6SM SKC
     FM270900 VRB02KT 5SM BR FEW007
     FM271000 VRB02KT 1/2SM FG VV003
     FM271300 14008KT P6SM SCT050=



000
FTUS43 KMPX 262321
TAFEAU
TAF
KEAU 262321Z 2700/2724 09005KT P6SM FEW110
     FM270200 12004KT P6SM SKC
     FM270900 VRB02KT 5SM BR FEW007
     FM271000 VRB02KT 1/2SM FG VV003
     FM271300 14008KT P6SM SCT050=



000
FTUS43 KMPX 262321
TAFMSP
TAF
KMSP 262321Z 2700/2806 13009KT P6SM FEW045 FEW110
     FM270200 12005KT P6SM FEW250
     FM271000 12004KT 6SM BR FEW250
     FM271300 13008KT P6SM SCT040
     FM271800 14011G16KT P6SM SCT050
     FM280200 15008KT P6SM BKN050=



000
FTUS43 KMPX 262321
TAFAXN
TAF
KAXN 262321Z 2700/2724 14010KT P6SM FEW045
     FM270200 14007KT P6SM FEW250
     FM270900 14005KT 5SM BR SKC
     FM271000 VRB02KT 2SM BR FEW250
     FM271300 13008KT P6SM FEW250
     FM271600 14012G19KT P6SM FEW050 BKN250=



000
FTUS43 KMPX 262321
TAFSTC
TAF
KSTC 262321Z 2700/2724 11005KT P6SM FEW040
     FM270200 12004KT P6SM FEW250
     FM270900 VRB02KT 5SM BR FEW250
     FM271000 VRB02KT 1SM BR FEW250
     FM271300 13008KT P6SM FEW250
     FM271700 14011G16KT P6SM SCT050=



000
FTUS43 KMPX 262321
TAFRWF
TAF
KRWF 262321Z 2700/2724 13006KT P6SM FEW035
     FM270200 14004KT P6SM SCT250
     FM270900 13008KT 4SM BR SCT010
     FM271000 VRB02KT 1SM BR SCT006
     FM271300 13008KT P6SM FEW250
     FM271600 14012G19KT P6SM FEW050 BKN250=



000
FTUS43 KMPX 262056 CCA
TAFMSP
TAF COR
KMSP 262056Z 2621/2724 11009KT P6SM FEW045 SCT110
     FM270100 11005KT P6SM FEW250
     FM271000 10004KT 6SM HZ FEW250
     FM271300 13008KT P6SM SCT040=



000
FTUS43 KMPX 262055 AAA
TAFMSP
TAF AMD
KMSP 262055Z 2621/2724 11009KT P6SM FEW045 SCT110
     FM262200 11007KT P6SM SCT120
     FM270100 11005KT P6SM FEW250
     FM271000 10004KT 6SM HZ FEW250
     FM271300 13008KT P6SM SCT040=



000
FTUS43 KMPX 261736
TAFAXN
TAF
KAXN 261736Z 2618/2718 15005KT P6SM SKC
     FM271500 14011G19KT P6SM SCT250=



000
FTUS43 KMPX 261736
TAFSTC
TAF
KSTC 261736Z 2618/2718 09005KT P6SM SCT040
     FM270100 VRB02KT P6SM SKC
     FM270900 VRB02KT 4SM BR SKC
     FM271300 13008KT P6SM SCT250=



000
FTUS43 KMPX 261736
TAFMSP
TAF
KMSP 261736Z 2618/2724 10005KT P6SM BKN120
     FM262200 11007KT P6SM SCT120
     FM270100 11005KT P6SM FEW250
     FM271000 10004KT 6SM HZ FEW250
     FM271300 13008KT P6SM SCT040=



000
FTUS43 KMPX 261736
TAFRWF
TAF
KRWF 261736Z 2618/2718 12006KT P6SM SCT035
     FM270100 14004KT P6SM SKC
     FM270900 13008KT 4SM BR SCT010=



000
FTUS43 KMPX 261736
TAFEAU
TAF
KEAU 261736Z 2618/2718 09005KT P6SM BKN110
     FM270100 11004KT P6SM SKC
     FM270900 12002KT 6SM BR FEW007
     FM271300 13008KT P6SM SCT250=



000
FTUS43 KMPX 261459 AAA
TAFMSP
TAF AMD
KMSP 261459Z 2615/2718 10005KT P6SM BKN120
     FM262200 12007KT P6SM SCT120
     FM270100 11005KT P6SM FEW250=



000
FTUS43 KMPX 261120
TAFMSP
TAF
KMSP 261120Z 2612/2718 13005KT P6SM BKN120 OVC250
     FM261600 15008KT P6SM BKN040
     FM261900 14008KT P6SM VCSH BKN050
     FM270100 14005KT P6SM SCT040=



000
FTUS43 KMPX 261120
TAFAXN
TAF
KAXN 261120Z 2612/2712 15005KT P6SM SKC
     FM261600 18008KT P6SM SCT040
     FM270100 15005KT P6SM SKC=



000
FTUS43 KMPX 261120
TAFSTC
TAF
KSTC 261120Z 2612/2712 14004KT P6SM BKN110 OVC150
     FM261600 17008KT P6SM SCT040
     FM270100 00000KT P6SM SKC=



000
FTUS43 KMPX 261120
TAFEAU
TAF
KEAU 261120Z 2612/2712 05004KT P6SM SCT120 OVC200
     FM261600 17008KT P6SM SCT040
     FM270100 14003KT P6SM SCT040
     FM270900 14002KT 4SM BR SCT007=



000
FTUS43 KMPX 261120
TAFEAU
TAF
KEAU 261120Z 2612/2712 05004KT P6SM SCT120 OVC200
     FM261600 17008KT P6SM SCT040
     FM270100 14003KT P6SM SCT040
     FM270900 14002KT 4SM BR SCT007=



000
FTUS43 KMPX 261120
TAFMSP
TAF
KMSP 261120Z 2612/2718 13005KT P6SM BKN120 OVC250
     FM261600 15008KT P6SM BKN040
     FM261900 14008KT P6SM VCSH BKN050
     FM270100 14005KT P6SM SCT040=



000
FTUS43 KMPX 261120
TAFRWF
TAF
KRWF 261120Z 2612/2712 15007KT P6SM BKN120
     FM261500 16008KT P6SM SCT040
     FM270100 14004KT P6SM SKC=



    US Dept of Commerce
    National Oceanic and Atmospheric Administration
    National Weather Service
    1325 East West Highway
    Silver Spring, MD 20910
    Page Author: NWS Internet Services Team
Disclaimer
Information Quality
Credits
Glossary
Privacy Policy
Freedom of Information Act (FOIA)
About Us
Career Opportunities